Terminal Aerodrome Forecast
Issued by NWS Cheyenne, WY

Home | Current Version | Previous Version | Text Only | Print | Product List | Glossary On
Versions: 1 2 3 4 5 6 7 8 9 10 11 12 13 14 15 16 17 18 19 20 21 22 23 24 25
000
FTUS45 KCYS 250500
TAFCYS
TAF
KCYS 250536Z 2506/2606 24010KT P6SM BKN120
     FM251700 18014G21KT P6SM BKN150
     FM260200 25010KT P6SM OVC150=

USA.gov is the U.S. government's official web portal to all federal, state and local government web resources and services.